Time;durP1;ratioP1;P1;durP2;ratioP2;P2;SDS_P1;SDS_P2;PMS_P1;PMS_P2;Temp;Humidity;BMP_temperature;BMP_pressure;BME280_temperature;BME280_humidity;BME280_pressure;Samples;Min_cycle;Max_cycle;Signal;HPM_P1;HPM_P2
2022/01/03 00:00:28;;;;;;;5.60;2.70;;;;;;;5.03;74.09;97873.59;104983;1271;62708;-23
2022/01/03 00:02:58;;;;;;;3.90;2.80;;;;;;;5.33;72.99;97873.00;104753;1271;61120;-23
2022/01/03 00:05:27;;;;;;;4.10;2.70;;;;;;;5.23;72.96;97873.13;104774;1271;73451;-22
2022/01/03 00:07:57;;;;;;;4.20;2.50;;;;;;;5.05;73.65;97864.13;105050;1271;75465;-22
2022/01/03 00:10:45;;;;;;;3.90;2.40;;;;;;;4.88;74.25;97861.68;105066;1270;74438;-23
2022/01/03 00:13:15;;;;;;;4.30;2.20;;;;;;;4.95;74.69;97856.50;104756;1271;62346;-22
2022/01/03 00:15:44;;;;;;;2.00;1.80;;;;;;;5.46;73.22;97847.21;104797;1268;61105;-24
2022/01/03 00:18:12;;;;;;;5.00;2.90;;;;;;;5.65;72.32;97845.18;104942;1271;74719;-22
2022/01/03 00:20:59;;;;;;;5.40;2.30;;;;;;;5.53;72.51;97837.36;104877;1271;75961;-23
2022/01/03 00:23:30;;;;;;;3.60;2.00;;;;;;;5.39;72.85;97829.56;105003;1271;72465;-22
2022/01/03 00:26:00;;;;;;;3.40;1.70;;;;;;;5.21;73.61;97814.06;104848;1271;62119;-22
2022/01/03 00:28:35;;;;;;;4.90;2.10;;;;;;;5.34;73.77;97807.34;104903;1271;61045;-22
2022/01/03 00:31:04;;;;;;;4.50;2.30;;;;;;;5.78;72.34;97810.77;104985;1271;74220;-22
2022/01/03 00:33:32;;;;;;;3.30;2.60;;;;;;;5.95;71.59;97813.02;104824;1272;74721;-25
2022/01/03 00:36:03;;;;;;;3.80;2.60;;;;;;;5.77;71.81;97816.31;104687;1274;73480;-21
2022/01/03 00:38:33;;;;;;;4.80;2.80;;;;;;;5.58;72.25;97817.48;104814;1271;62064;-24
2022/01/03 00:41:02;;;;;;;4.90;2.50;;;;;;;5.37;73.07;97811.13;104811;1271;62224;-23
2022/01/03 00:43:32;;;;;;;6.50;2.40;;;;;;;5.21;73.76;97802.41;105135;1271;74409;-22
2022/01/03 00:46:00;;;;;;;3.60;2.20;;;;;;;5.60;73.22;97789.10;104931;1271;76221;-23
2022/01/03 00:48:29;;;;;;;2.60;1.90;;;;;;;6.01;71.81;97780.59;104752;1274;72579;-24
2022/01/03 00:50:58;;;;;;;2.20;1.60;;;;;;;5.99;71.56;97769.11;104816;1274;61841;-25
2022/01/03 00:53:27;;;;;;;3.30;1.90;;;;;;;5.87;71.67;97772.65;104804;1274;61132;-23
2022/01/03 00:56:12;;;;;;;5.70;3.00;;;;;;;5.62;72.46;97771.62;104948;1274;75576;-23
2022/01/03 00:58:53;;;;;;;3.70;2.50;;;;;;;5.44;73.09;97769.42;104632;1274;75980;-25
2022/01/03 01:01:22;;;;;;;4.20;1.60;;;;;;;5.64;73.18;97774.17;104651;1274;74448;-25
2022/01/03 01:03:55;;;;;;;3.80;2.20;;;;;;;6.02;71.95;97781.63;104756;1274;61093;-24
2022/01/03 01:06:24;;;;;;;4.20;2.20;;;;;;;6.00;71.44;97771.98;104649;1274;61270;-25
2022/01/03 01:08:54;;;;;;;3.90;2.20;;;;;;;5.67;72.30;97771.33;104658;1274;75597;-26
2022/01/03 01:11:28;;;;;;;2.50;1.90;;;;;;;5.44;73.08;97766.27;104720;1272;76344;-24
2022/01/03 01:14:16;;;;;;;4.20;1.90;;;;;;;5.30;74.07;97761.70;104691;1271;75564;-23
2022/01/03 01:16:46;;;;;;;4.30;2.60;;;;;;;5.56;73.87;97742.44;104822;1271;61039;-25
2022/01/03 01:19:15;;;;;;;3.30;1.60;;;;;;;5.88;72.96;97724.38;104868;1274;61124;-25
2022/01/03 01:21:43;;;;;;;4.10;1.90;;;;;;;5.79;72.84;97707.15;104960;1274;74883;-26
2022/01/03 01:24:12;;;;;;;3.20;2.20;;;;;;;5.50;74.06;97704.17;104883;1274;76004;-24
2022/01/03 01:29:27;;;;;;;3.80;1.80;;;;;;;5.36;74.66;97708.38;105109;1271;61032;-23
2022/01/03 01:31:57;;;;;;;2.60;1.70;;;;;;;5.77;73.94;97702.00;104759;1274;61153;-23
2022/01/03 01:34:27;;;;;;;2.90;1.80;;;;;;;6.13;72.75;97693.52;104752;1273;75320;-24
2022/01/03 01:37:00;;;;;;;3.90;2.00;;;;;;;6.12;72.55;97684.16;104654;1274;76114;-23
2022/01/03 01:39:30;;;;;;;3.80;2.60;;;;;;;6.04;72.55;97684.95;104855;1272;73460;-23
2022/01/03 01:42:02;;;;;;;4.70;1.80;;;;;;;5.91;73.10;97679.00;104929;1272;61202;-23
2022/01/03 01:44:32;;;;;;;3.40;1.70;;;;;;;5.82;73.94;97669.69;104680;1274;61028;-23
2022/01/03 01:47:04;;;;;;;3.00;1.70;;;;;;;6.25;73.22;97672.14;104629;1274;74409;-23
2022/01/03 01:49:38;;;;;;;3.60;1.80;;;;;;;6.42;72.90;97673.66;104738;1274;74722;-23
2022/01/03 01:52:10;;;;;;;5.30;2.10;;;;;;;6.30;73.21;97668.42;105007;1274;74519;-23
2022/01/03 01:54:39;;;;;;;3.60;2.10;;;;;;;6.15;73.76;97655.11;105012;1274;61147;-23
2022/01/03 01:57:17;;;;;;;3.00;1.80;;;;;;;5.97;74.59;97646.59;104907;1274;62689;-23
2022/01/03 02:00:10;;;;;;;3.30;1.80;;;;;;;6.36;73.62;97647.78;104871;1274;75727;-23
2022/01/03 02:02:43;;;;;;;4.20;2.00;;;;;;;6.65;72.22;97640.45;104803;1274;76773;-23
2022/01/03 02:05:34;;;;;;;3.00;2.60;;;;;;;6.61;72.18;97642.55;104600;1274;74493;-23
2022/01/03 02:08:28;;;;;;;2.60;1.90;;;;;;;6.38;72.36;97627.14;104668;1274;61154;-23
2022/01/03 02:11:20;;;;;;;2.70;1.90;;;;;;;6.20;73.15;97624.36;104687;1274;61245;-22
2022/01/03 02:13:49;;;;;;;2.30;1.40;;;;;;;6.17;73.38;97618.19;104788;1274;75523;-23
2022/01/03 02:16:18;;;;;;;2.20;1.60;;;;;;;6.64;71.88;97620.20;105023;1274;74983;-23
2022/01/03 02:18:49;;;;;;;3.20;2.10;;;;;;;6.80;71.15;97613.97;104998;1273;73487;-23
2022/01/03 02:21:19;;;;;;;2.90;1.80;;;;;;;6.58;71.63;97607.81;105040;1273;61138;-23
2022/01/03 02:23:48;;;;;;;3.20;2.00;;;;;;;6.44;71.89;97605.94;104974;1274;61048;-23
2022/01/03 02:26:16;;;;;;;3.80;2.30;;;;;;;6.22;72.44;97597.98;104712;1274;75664;-23
2022/01/03 02:28:45;;;;;;;1.90;1.40;;;;;;;6.01;73.55;97590.06;104762;1274;75054;-23
2022/01/03 02:31:17;;;;;;;2.20;1.60;;;;;;;6.39;72.63;97590.69;104794;1274;73530;-22
2022/01/03 02:33:46;;;;;;;3.10;2.10;;;;;;;6.78;71.05;97594.19;104767;1273;61550;-22
2022/01/03 02:36:16;;;;;;;3.30;1.90;;;;;;;6.77;70.81;97594.06;104710;1274;61787;-22
2022/01/03 02:38:44;;;;;;;3.00;2.00;;;;;;;6.53;71.41;97588.27;104655;1274;73148;-23
2022/01/03 02:41:13;;;;;;;2.70;1.90;;;;;;;6.34;72.10;97582.95;104722;1274;74942;-22
2022/01/03 02:43:41;;;;;;;4.40;1.80;;;;;;;6.21;72.84;97589.27;104795;1274;74433;-23
2022/01/03 02:46:09;;;;;;;2.10;1.30;;;;;;;6.20;73.29;97585.77;104754;1274;62751;-22
2022/01/03 02:48:38;;;;;;;2.60;1.60;;;;;;;6.66;71.55;97576.90;104800;1274;62022;-22
2022/01/03 02:51:06;;;;;;;3.40;1.70;;;;;;;6.79;70.85;97569.36;104888;1271;73892;-23
2022/01/03 02:53:34;;;;;;;2.60;1.90;;;;;;;6.68;70.98;97571.35;104940;1272;76374;-23
2022/01/03 02:56:03;;;;;;;3.60;1.80;;;;;;;6.49;71.81;97563.40;105123;1271;74316;-23
2022/01/03 02:58:32;;;;;;;3.30;1.90;;;;;;;6.29;72.58;97564.45;105140;1274;61106;-22
2022/01/03 03:01:01;;;;;;;3.00;1.30;;;;;;;6.11;73.09;97558.92;105152;1271;61063;-22
2022/01/03 03:03:39;;;;;;;3.40;1.70;;;;;;;6.24;73.05;97553.14;105147;1270;75486;-23
2022/01/03 03:06:07;;;;;;;2.50;1.80;;;;;;;6.66;71.53;97544.13;105129;1271;74616;-23
2022/01/03 03:08:36;;;;;;;2.70;1.70;;;;;;;6.76;70.97;97544.88;104809;1274;74388;-22
2022/01/03 03:11:04;;;;;;;2.00;1.40;;;;;;;6.65;71.21;97541.85;104935;1271;61109;-22
2022/01/03 03:13:33;;;;;;;5.40;2.60;;;;;;;6.43;71.93;97540.31;104800;1274;60978;-22
2022/01/03 03:16:04;;;;;;;5.20;2.50;;;;;;;6.31;72.41;97545.34;104921;1271;75570;-23
2022/01/03 03:18:33;;;;;;;3.00;1.60;;;;;;;6.16;73.22;97537.66;104631;1274;74795;-22
2022/01/03 03:21:03;;;;;;;1.80;1.40;;;;;;;6.42;72.59;97538.52;104904;1271;73631;-22
2022/01/03 03:23:32;;;;;;;3.10;1.40;;;;;;;6.85;70.95;97537.13;104852;1271;61126;-22
2022/01/03 03:26:01;;;;;;;2.80;2.00;;;;;;;6.82;70.74;97529.13;105137;1271;61935;-22
2022/01/03 03:28:33;;;;;;;2.50;1.60;;;;;;;6.62;71.41;97520.38;104986;1271;74886;-23
2022/01/03 03:31:03;;;;;;;3.20;2.10;;;;;;;6.46;72.05;97517.87;105003;1271;76030;-22
2022/01/03 03:33:46;;;;;;;4.30;1.90;;;;;;;6.28;72.74;97514.53;104859;1274;74436;-23
2022/01/03 03:36:15;;;;;;;2.60;1.70;;;;;;;6.16;73.40;97520.93;105081;1271;61134;-22
2022/01/03 03:38:44;;;;;;;2.90;1.80;;;;;;;6.47;72.67;97517.39;104810;1274;61208;-22
2022/01/03 03:41:15;;;;;;;3.50;1.70;;;;;;;6.92;71.14;97517.04;104922;1271;75781;-23
2022/01/03 03:43:50;;;;;;;4.10;2.20;;;;;;;6.91;70.75;97514.02;104900;1271;76000;-22
2022/01/03 03:46:18;;;;;;;3.00;2.00;;;;;;;6.74;71.26;97518.81;104762;1271;74423;-23
2022/01/03 03:48:47;;;;;;;3.40;2.10;;;;;;;6.56;71.84;97512.43;104908;1274;61237;-22
2022/01/03 03:51:18;;;;;;;3.90;2.40;;;;;;;6.38;72.50;97507.33;105146;1274;61158;-22
2022/01/03 03:53:49;;;;;;;3.30;1.70;;;;;;;6.23;73.17;97508.82;105130;1271;74509;-22
2022/01/03 03:56:18;;;;;;;3.40;1.40;;;;;;;6.33;73.05;97499.81;105112;1272;75134;-23
2022/01/03 03:58:46;;;;;;;2.30;1.70;;;;;;;6.85;71.56;97498.67;105114;1274;73406;-23
2022/01/03 04:01:14;;;;;;;3.10;2.20;;;;;;;6.96;71.05;97491.24;104910;1274;61809;-22
2022/01/03 04:03:47;;;;;;;4.40;2.00;;;;;;;6.89;70.78;97496.21;104791;1272;61029;-22
2022/01/03 04:06:17;;;;;;;4.10;1.70;;;;;;;6.69;71.50;97489.70;104787;1274;75285;-23
2022/01/03 04:08:48;;;;;;;2.70;1.80;;;;;;;6.52;72.19;97492.81;104751;1271;76199;-22
2022/01/03 04:11:17;;;;;;;3.00;1.70;;;;;;;6.33;72.75;97492.58;104768;1274;74615;-22
2022/01/03 04:13:49;;;;;;;2.60;1.70;;;;;;;6.38;73.08;97492.66;105067;1271;62516;-22
2022/01/03 04:16:17;;;;;;;3.30;2.10;;;;;;;6.96;71.46;97499.93;105165;1274;61178;-22
2022/01/03 04:18:46;;;;;;;3.80;2.00;;;;;;;7.12;70.82;97497.05;105025;1271;75634;-22
2022/01/03 04:21:16;;;;;;;2.70;1.80;;;;;;;7.01;70.65;97496.41;105069;1272;75807;-23
2022/01/03 04:23:44;;;;;;;2.40;1.70;;;;;;;6.85;71.20;97498.86;104990;1274;74760;-23
2022/01/03 04:26:13;;;;;;;2.80;1.80;;;;;;;6.63;71.81;97492.04;104998;1274;61812;-23
2022/01/03 04:28:42;;;;;;;1.80;1.20;;;;;;;6.46;72.59;97492.84;104934;1271;61132;-23
2022/01/03 04:31:10;;;;;;;3.80;1.40;;;;;;;6.46;72.78;97490.69;105062;1271;75584;-23
2022/01/03 04:33:39;;;;;;;2.90;1.80;;;;;;;6.96;71.68;97491.77;104865;1271;75739;-23
2022/01/03 04:36:09;;;;;;;2.40;1.70;;;;;;;7.19;70.71;97491.30;104838;1274;73179;-23
2022/01/03 04:38:38;;;;;;;3.70;1.80;;;;;;;7.08;70.77;97481.39;104738;1274;61997;-23
2022/01/03 04:41:06;;;;;;;2.50;1.70;;;;;;;6.90;71.23;97481.85;104724;1273;61232;-23
2022/01/03 04:43:35;;;;;;;3.20;1.90;;;;;;;6.71;71.94;97476.30;104911;1274;74619;-23
2022/01/03 04:46:05;;;;;;;3.70;1.80;;;;;;;6.55;72.53;97474.44;105065;1274;76017;-24
2022/01/03 04:48:35;;;;;;;2.30;1.20;;;;;;;6.55;72.88;97473.75;104975;1274;71630;-23
2022/01/03 04:51:04;;;;;;;3.10;1.70;;;;;;;7.06;71.57;97483.09;104954;1274;62139;-22
2022/01/03 04:53:36;;;;;;;2.80;1.50;;;;;;;7.35;70.51;97483.58;105157;1271;61103;-22
2022/01/03 04:56:04;;;;;;;3.40;1.90;;;;;;;7.28;70.48;97479.77;105067;1274;73847;-23
2022/01/03 04:58:33;;;;;;;3.00;1.70;;;;;;;7.09;70.92;97479.53;104936;1272;74809;-22
2022/01/03 05:01:02;;;;;;;3.20;1.90;;;;;;;6.92;71.46;97476.77;104999;1274;193109;-23
2022/01/03 05:03:32;;;;;;;2.10;1.50;;;;;;;6.72;72.06;97472.02;104750;1273;61172;-22
2022/01/03 05:06:02;;;;;;;2.10;1.10;;;;;;;6.65;72.55;97469.59;105132;1274;61082;-22
2022/01/03 05:08:32;;;;;;;2.10;1.30;;;;;;;7.15;71.79;97463.67;104988;1274;75466;-23
2022/01/03 05:11:06;;;;;;;2.20;1.40;;;;;;;7.52;70.19;97460.11;105051;1274;76004;-23
2022/01/03 05:13:35;;;;;;;2.20;1.60;;;;;;;7.52;69.91;97463.19;104927;1274;74516;-22
2022/01/03 05:16:04;;;;;;;2.80;1.70;;;;;;;7.35;70.33;97467.49;104816;1273;61074;-22
2022/01/03 05:18:33;;;;;;;2.90;1.60;;;;;;;7.19;70.71;97465.90;104742;1274;61221;-24
2022/01/03 05:21:02;;;;;;;4.00;1.60;;;;;;;6.98;71.33;97461.63;104717;1274;74762;-24
2022/01/03 05:23:31;;;;;;;3.10;1.90;;;;;;;6.79;71.97;97457.59;104844;1274;75867;-21
2022/01/03 05:26:01;;;;;;;1.40;0.90;;;;;;;6.68;72.45;97454.13;105052;1274;73572;-22
2022/01/03 05:28:31;;;;;;;4.50;2.20;;;;;;;7.23;71.57;97456.90;104971;1274;61266;-24
2022/01/03 05:31:01;;;;;;;3.00;1.60;;;;;;;7.59;70.14;97457.00;104833;1274;61868;-24
2022/01/03 05:33:34;;;;;;;3.60;1.70;;;;;;;7.55;69.90;97458.77;104784;1274;74908;-24
2022/01/03 05:36:03;;;;;;;4.70;1.80;;;;;;;7.34;70.42;97461.56;104815;1274;76882;-24
2022/01/03 05:38:33;;;;;;;5.30;2.30;;;;;;;7.13;70.97;97462.27;104644;1275;74360;-24
2022/01/03 05:41:02;;;;;;;2.90;1.90;;;;;;;6.92;71.66;97455.23;105117;1274;61151;-22
2022/01/03 05:43:31;;;;;;;3.10;1.70;;;;;;;6.73;72.42;97450.08;105105;1274;61359;-24
2022/01/03 05:46:00;;;;;;;3.00;1.90;;;;;;;6.82;72.62;97447.52;105038;1271;74104;-24
2022/01/03 05:48:29;;;;;;;2.90;1.70;;;;;;;7.38;71.08;97448.40;104949;1271;74786;-24
2022/01/03 05:50:57;;;;;;;4.60;2.00;;;;;;;7.58;70.09;97451.02;104998;1271;73452;-24
2022/01/03 05:53:26;;;;;;;3.30;2.00;;;;;;;7.46;70.18;97448.02;104919;1271;61107;-24
2022/01/03 05:55:55;;;;;;;3.10;1.90;;;;;;;7.33;70.73;97448.54;104793;1271;61073;-24
2022/01/03 05:58:23;;;;;;;3.30;2.40;;;;;;;7.08;71.72;97440.83;104898;1271;75997;-24
2022/01/03 06:00:52;;;;;;;5.10;2.70;;;;;;;6.96;72.18;97446.02;104829;1272;74845;-24
2022/01/03 06:03:23;;;;;;;3.80;1.80;;;;;;;6.83;72.92;97435.83;104920;1271;74382;-22
2022/01/03 06:08:29;;;;;;;2.50;1.80;;;;;;;7.77;70.28;97424.42;105117;1271;61024;-22
2022/01/03 06:10:57;;;;;;;7.10;2.10;;;;;;;7.88;69.66;97414.04;105016;1271;74709;-22
2022/01/03 06:13:31;;;;;;;;;;;;;;;7.86;69.65;97411.42;104949;1271;75978;-22
2022/01/03 06:16:00;;;;;;;3.70;2.50;;;;;;;7.74;70.11;97410.98;104851;1271;73047;-22
2022/01/03 06:18:30;;;;;;;2.80;1.60;;;;;;;7.66;70.47;97408.84;104874;1271;61267;-22
2022/01/03 06:21:04;;;;;;;2.90;2.00;;;;;;;7.66;70.59;97420.98;104842;1271;61161;-24
2022/01/03 06:23:36;;;;;;;4.00;1.80;;;;;;;8.01;69.24;97403.06;104921;1274;75261;-22
2022/01/03 06:28:35;;;;;;;4.70;2.70;;;;;;;8.31;68.05;97406.96;101567;1309;599527;-22
2022/01/03 06:31:05;;;;;;;5.70;2.50;;;;;;;8.15;68.28;97390.02;104345;1284;61323;-23
2022/01/03 06:33:35;;;;;;;4.30;2.00;;;;;;;8.05;68.91;97411.88;104239;1286;61057;-24
2022/01/03 06:36:04;;;;;;;4.50;2.20;;;;;;;7.89;69.21;97399.54;104342;1284;72911;-24
2022/01/03 06:38:33;;;;;;;3.00;1.90;;;;;;;7.80;69.60;97399.77;104249;1286;74771;-24
2022/01/03 06:41:01;;;;;;;4.30;2.70;;;;;;;8.00;68.82;97396.25;104155;1285;74534;-23
2022/01/03 06:43:30;;;;;;;4.90;2.60;;;;;;;8.33;67.84;97392.10;104257;1283;61263;-22
2022/01/03 06:45:58;;;;;;;3.70;2.60;;;;;;;8.36;67.57;97394.33;103970;1283;61240;-22
2022/01/03 06:48:27;;;;;;;4.20;2.30;;;;;;;8.29;67.54;97388.11;104189;1282;72406;-22
2022/01/03 06:50:55;;;;;;;4.30;2.20;;;;;;;8.12;68.09;97397.93;104177;1282;75921;-22
2022/01/03 06:53:23;;;;;;;3.20;2.20;;;;;;;7.98;68.48;97386.61;104400;1283;74247;-23
2022/01/03 06:55:52;;;;;;;3.20;1.80;;;;;;;7.94;68.48;97390.15;104450;1283;62219;-22
2022/01/03 06:58:20;;;;;;;2.00;1.10;;;;;;;7.88;68.85;97406.10;104463;1283;61015;-22
2022/01/03 07:00:51;;;;;;;8.40;1.80;;;;;;;8.20;67.89;97390.41;104455;1283;73251;-22
2022/01/03 07:03:20;;;;;;;3.90;2.30;;;;;;;8.49;66.96;97399.86;104530;1283;76023;-23
2022/01/03 07:05:49;;;;;;;3.70;2.10;;;;;;;8.38;66.93;97390.89;104457;1283;74485;-22
2022/01/03 07:08:21;;;;;;;4.60;2.30;;;;;;;8.32;67.19;97386.97;104413;1283;61128;-22
2022/01/03 07:10:49;;;;;;;7.10;2.10;;;;;;;8.18;67.43;97387.61;104421;1283;61072;-22
2022/01/03 07:13:17;;;;;;;5.00;2.50;;;;;;;8.08;67.83;97393.37;104403;1283;74840;-22
2022/01/03 07:21:21;;;;;;;3.40;2.00;;;;;;;8.14;68.06;97376.75;104369;1283;61815;-22
2022/01/03 07:23:49;;;;;;;2.60;2.10;;;;;;;8.31;67.17;97373.09;104403;1283;61810;-22
2022/01/03 07:26:17;;;;;;;4.10;2.40;;;;;;;8.34;66.92;97370.87;103847;1283;72798;-23
2022/01/03 07:28:46;;;;;;;4.20;2.10;;;;;;;8.28;67.17;97356.24;104042;1283;75064;-22
2022/01/03 07:31:15;;;;;;;3.90;1.80;;;;;;;8.17;67.82;97373.60;104382;1283;74350;-22
2022/01/03 07:33:43;;;;;;;6.20;2.20;;;;;;;7.98;68.25;97358.42;104393;1283;61042;-22
2022/01/03 07:36:11;;;;;;;5.80;2.50;;;;;;;7.92;68.56;97357.63;104111;1283;61292;-22
2022/01/03 07:38:39;;;;;;;3.40;1.80;;;;;;;8.08;68.19;97351.08;104019;1283;74517;-22
2022/01/03 07:41:09;;;;;;;5.50;2.20;;;;;;;8.45;66.82;97352.55;104219;1283;76029;-22
2022/01/03 07:43:37;;;;;;;4.60;2.30;;;;;;;8.42;66.94;97361.94;104238;1283;72685;-23
2022/01/03 07:46:06;;;;;;;2.80;1.90;;;;;;;8.32;67.23;97370.50;104291;1284;61172;-22
2022/01/03 07:48:34;;;;;;;5.80;2.30;;;;;;;8.23;67.40;97360.49;104448;1283;62251;-22
2022/01/03 07:51:02;;;;;;;4.40;2.30;;;;;;;8.15;67.75;97381.63;104387;1283;73511;-23
2022/01/03 07:53:31;;;;;;;4.10;2.50;;;;;;;7.97;68.28;97356.02;104492;1283;76884;-23
2022/01/03 07:56:00;;;;;;;3.60;1.90;;;;;;;7.91;68.66;97361.58;104393;1283;74310;-22
2022/01/03 07:58:28;;;;;;;5.50;2.00;;;;;;;8.12;67.95;97372.84;104470;1283;62095;-22
2022/01/03 08:00:57;;;;;;;4.20;2.70;;;;;;;8.34;67.02;97349.44;104460;1283;61084;-22
2022/01/03 08:03:26;;;;;;;3.50;2.10;;;;;;;8.42;66.62;97363.48;104514;1283;75146;-22
2022/01/03 08:06:08;;;;;;;4.20;2.40;;;;;;;8.26;67.04;97344.52;104401;1283;76580;-23
2022/01/03 08:08:37;;;;;;;4.10;1.90;;;;;;;8.19;67.15;97340.98;104315;1283;72733;-23
2022/01/03 08:11:06;;;;;;;6.10;2.50;;;;;;;8.11;67.22;97346.63;104416;1283;61074;-24
2022/01/03 08:13:35;;;;;;;5.40;2.60;;;;;;;7.99;67.67;97339.53;104347;1283;61498;-24
2022/01/03 08:16:04;;;;;;;4.60;1.90;;;;;;;7.94;68.03;97358.34;104324;1283;74681;-22
2022/01/03 08:18:33;;;;;;;4.00;2.20;;;;;;;8.21;67.18;97342.36;104367;1283;75997;-23
2022/01/03 08:21:01;;;;;;;4.00;2.30;;;;;;;8.50;66.25;97343.06;104503;1283;71564;-24
2022/01/03 08:23:32;;;;;;;4.30;2.10;;;;;;;8.45;66.47;97367.92;104451;1283;61118;-24
2022/01/03 08:26:00;;;;;;;3.80;1.90;;;;;;;8.39;66.51;97362.80;104181;1283;61831;-22
2022/01/03 08:28:29;;;;;;;3.50;1.60;;;;;;;8.19;67.58;97342.79;104697;1276;73903;-23
2022/01/03 08:30:58;;;;;;;3.30;2.00;;;;;;;8.02;68.53;97360.34;104735;1276;74728;-22
2022/01/03 08:33:27;;;;;;;5.40;2.90;;;;;;;7.93;68.57;97340.92;104677;1276;74204;-22
2022/01/03 08:35:57;;;;;;;4.50;2.20;;;;;;;7.86;68.34;97337.31;104664;1276;61188;-22
2022/01/03 08:38:25;;;;;;;3.00;1.70;;;;;;;8.10;67.78;97352.29;104707;1277;61897;-23
2022/01/03 08:40:54;;;;;;;3.90;2.00;;;;;;;8.46;66.19;97340.82;104775;1276;73707;-23
2022/01/03 08:43:23;;;;;;;3.80;2.30;;;;;;;8.43;65.94;97335.58;104722;1276;75631;-22
2022/01/03 08:45:52;;;;;;;4.20;2.30;;;;;;;8.41;66.11;97346.95;104702;1276;74271;-23
2022/01/03 08:48:21;;;;;;;3.40;1.70;;;;;;;8.29;66.23;97327.92;104667;1276;61101;-22
2022/01/03 08:50:49;;;;;;;4.80;2.50;;;;;;;8.18;66.78;97323.02;104607;1277;61166;-22
2022/01/03 08:53:19;;;;;;;5.90;2.20;;;;;;;8.03;67.18;97317.02;104656;1278;73783;-22
2022/01/03 08:55:47;;;;;;;4.50;2.70;;;;;;;7.98;67.12;97285.67;104665;1276;75796;-22
2022/01/03 08:58:18;;;;;;;2.80;1.60;;;;;;;7.92;67.69;97301.30;104578;1276;74167;-22
2022/01/03 09:00:46;;;;;;;3.40;1.90;;;;;;;8.26;66.51;97300.41;104533;1276;61020;-23
2022/01/03 09:03:16;;;;;;;2.40;1.60;;;;;;;8.56;65.39;97282.65;104445;1276;61222;-22
2022/01/03 09:05:45;;;;;;;4.00;2.20;;;;;;;8.60;65.37;97307.65;104676;1276;73638;-22
2022/01/03 09:08:13;;;;;;;4.40;1.70;;;;;;;8.39;66.22;97278.38;104672;1276;76046;-22
2022/01/03 09:10:41;;;;;;;10.90;2.50;;;;;;;8.26;66.52;97256.36;104666;1276;74449;-23
2022/01/03 09:13:09;;;;;;;3.50;1.90;;;;;;;8.19;66.66;97270.29;104715;1277;61967;-22
2022/01/03 09:15:44;;;;;;;3.40;2.40;;;;;;;8.16;66.75;97263.48;104625;1276;61171;-22
2022/01/03 09:18:16;;;;;;;5.20;2.40;;;;;;;8.13;66.50;97253.48;104692;1276;73110;-22
2022/01/03 09:20:44;;;;;;;2.20;1.60;;;;;;;8.15;67.28;97285.73;104310;1276;75043;-22
2022/01/03 09:23:18;;;;;;;2.70;1.50;;;;;;;8.50;66.03;97276.29;104616;1276;74143;-22
2022/01/03 09:28:49;;;;;;;5.50;3.10;;;;;;;8.77;64.51;97275.27;104551;1277;61192;-22
2022/01/03 09:31:30;;;;;;;3.60;2.40;;;;;;;8.62;64.48;97263.65;104316;1277;74749;-22
2022/01/03 09:34:00;;;;;;;4.90;2.00;;;;;;;8.51;65.41;97285.70;104468;1277;73820;-22
2022/01/03 09:36:30;;;;;;;6.40;2.20;;;;;;;8.41;65.30;97249.33;104533;1280;74614;-22
2022/01/03 09:38:59;;;;;;;3.00;1.60;;;;;;;8.35;65.51;97264.81;104605;1277;61124;-22
2022/01/03 09:41:28;;;;;;;6.70;2.10;;;;;;;8.26;65.96;97270.69;104584;1277;61053;-22
2022/01/03 09:44:00;;;;;;;3.70;2.20;;;;;;;8.17;66.00;97252.55;104623;1277;74461;-22
2022/01/03 09:46:36;;;;;;;5.00;2.40;;;;;;;8.09;65.85;97236.89;104635;1278;73956;-22
2022/01/03 09:49:07;;;;;;;6.10;1.70;;;;;;;8.00;66.65;97273.43;104625;1277;74469;-22
2022/01/03 09:51:37;;;;;;;4.00;1.60;;;;;;;8.34;65.83;97258.34;104604;1277;61954;-22
2022/01/03 09:54:12;;;;;;;3.70;2.20;;;;;;;8.66;64.75;97269.69;104669;1277;61041;-22
2022/01/03 09:56:42;;;;;;;5.80;2.30;;;;;;;8.49;64.53;97241.40;104498;1278;73775;-21
2022/01/03 09:59:10;;;;;;;4.00;1.80;;;;;;;8.37;64.98;97235.85;104710;1276;76546;-22
2022/01/03 10:01:42;;;;;;;6.80;2.30;;;;;;;8.36;65.32;97276.28;104703;1276;74439;-23
2022/01/03 10:04:14;;;;;;;2.50;1.70;;;;;;;8.16;65.55;97254.67;104663;1277;61027;-21
2022/01/03 10:06:44;;;;;;;2.20;1.80;;;;;;;8.07;65.84;97247.89;104596;1278;61139;-25
2022/01/03 10:09:33;;;;;;;4.40;1.70;;;;;;;8.05;66.49;97261.71;104584;1278;74354;-24
2022/01/03 10:12:01;;;;;;;4.50;2.40;;;;;;;7.91;66.45;97226.55;104631;1276;74071;-24
2022/01/03 10:14:48;;;;;;;1.80;1.30;;;;;;;7.90;67.03;97256.27;104549;1278;74611;-23
2022/01/03 10:17:16;;;;;;;3.60;1.70;;;;;;;8.20;65.76;97270.59;104569;1277;62156;-23
2022/01/03 10:20:02;;;;;;;6.40;2.00;;;;;;;8.49;65.04;97254.24;104628;1277;61137;-25
2022/01/03 10:22:32;;;;;;;3.20;1.90;;;;;;;8.40;64.93;97248.55;104683;1277;74686;-24
2022/01/03 10:25:16;;;;;;;3.60;2.10;;;;;;;8.37;65.02;97230.48;104584;1280;76070;-26
2022/01/03 10:27:54;;;;;;;5.20;2.50;;;;;;;8.13;65.27;97211.80;104694;1277;74347;-25
2022/01/03 10:30:36;;;;;;;6.70;2.40;;;;;;;8.07;65.38;97243.13;104582;1280;62303;-23
2022/01/03 10:33:07;;;;;;;3.30;2.10;;;;;;;7.79;66.34;97224.61;104505;1278;61813;-25
2022/01/03 10:35:58;;;;;;;4.90;2.30;;;;;;;7.74;66.97;97234.89;104675;1278;73443;-25
2022/01/03 10:38:31;;;;;;;3.10;2.10;;;;;;;7.72;67.27;97267.14;104608;1277;76086;-24
2022/01/03 10:41:17;;;;;;;4.60;2.20;;;;;;;8.05;66.09;97257.38;104487;1277;74491;-22
2022/01/03 10:43:56;;;;;;;5.20;2.00;;;;;;;8.29;65.40;97266.73;104539;1278;62114;-22
2022/01/03 10:46:32;;;;;;;4.00;2.40;;;;;;;8.01;66.52;97267.62;104608;1278;62049;-22
2022/01/03 10:49:15;;;;;;;3.60;2.20;;;;;;;8.00;66.53;97254.92;104633;1278;75519;-23
2022/01/03 10:51:44;;;;;;;4.30;2.10;;;;;;;7.91;67.20;97274.44;104595;1278;76000;-23
2022/01/03 10:54:15;;;;;;;4.60;2.40;;;;;;;7.77;67.68;97248.38;104709;1277;73418;-23
2022/01/03 10:56:50;;;;;;;5.10;2.50;;;;;;;7.77;67.87;97266.14;104381;1278;61285;-23
2022/01/03 10:59:21;;;;;;;4.30;2.10;;;;;;;7.80;67.92;97258.30;104692;1277;61127;-22
2022/01/03 11:02:00;;;;;;;4.10;2.40;;;;;;;8.10;67.09;97261.52;104577;1278;75957;-22
2022/01/03 11:13:10;;;;;;;3.30;2.30;;;;;;;7.89;66.82;97253.95;104316;1278;61470;-22
2022/01/03 11:16:00;;;;;;;4.10;2.50;;;;;;;7.78;66.94;97224.92;104286;1278;75560;-22
2022/01/03 11:18:33;;;;;;;4.40;2.70;;;;;;;7.73;66.64;97210.34;104665;1277;76044;-22
2022/01/03 11:21:16;;;;;;;2.50;1.90;;;;;;;7.74;66.93;97228.32;104578;1278;72954;-22
2022/01/03 11:24:12;;;;;;;3.40;2.20;;;;;;;8.06;66.25;97250.51;104523;1277;61966;-22
2022/01/03 11:26:47;;;;;;;4.30;2.60;;;;;;;8.02;66.10;97235.56;104410;1277;61182;-23
2022/01/03 11:29:15;;;;;;;5.50;2.50;;;;;;;8.03;66.41;97248.35;104309;1278;74761;-22
2022/01/03 11:31:44;;;;;;;4.10;2.60;;;;;;;7.95;66.68;97258.88;104690;1278;75026;-23
2022/01/03 11:34:12;;;;;;;3.40;2.20;;;;;;;7.81;66.89;97233.67;104723;1277;73138;-23
2022/01/03 11:36:58;;;;;;;3.80;2.60;;;;;;;7.69;67.36;97226.54;104711;1277;62541;-23
2022/01/03 11:39:28;;;;;;;2.10;1.60;;;;;;;7.64;67.67;97243.44;104679;1277;61144;-23
2022/01/03 11:41:57;;;;;;;3.70;1.80;;;;;;;7.81;67.14;97236.23;104695;1277;73892;-23
2022/01/03 11:44:26;;;;;;;3.60;2.20;;;;;;;8.23;65.95;97244.33;104647;1277;75107;-23
2022/01/03 11:46:54;;;;;;;3.30;2.00;;;;;;;8.21;65.97;97242.46;104693;1277;74425;-23
2022/01/03 11:49:23;;;;;;;3.60;2.10;;;;;;;8.16;66.58;97262.01;104702;1276;61059;-23
2022/01/03 11:51:51;;;;;;;3.20;2.00;;;;;;;7.90;67.22;97232.77;104342;1277;61071;-23
2022/01/03 11:54:20;;;;;;;5.10;3.00;;;;;;;7.91;67.63;97244.05;104615;1278;75476;-23
2022/01/03 11:57:05;;;;;;;8.00;1.80;;;;;;;7.79;68.31;97227.80;104273;1277;75887;-24
2022/01/03 12:05:55;;;;;;;3.70;2.00;;;;;;;8.40;66.03;97210.96;104627;1277;61148;-23
2022/01/03 12:10:47;;;;;;;3.30;2.40;;;;;;;8.27;66.84;97223.23;102373;1300;616119;-22
2022/01/03 12:13:15;;;;;;;5.20;2.90;;;;;;;8.00;67.93;97215.07;104485;1284;62129;-22
2022/01/03 12:16:03;;;;;;;8.90;2.50;;;;;;;7.88;68.74;97218.29;104430;1284;62209;-22
2022/01/03 12:18:32;;;;;;;4.60;2.50;;;;;;;7.94;68.79;97204.73;104245;1284;73070;-22
2022/01/03 12:21:01;;;;;;;4.20;2.00;;;;;;;8.21;67.80;97200.14;104462;1284;74226;-22
2022/01/03 12:23:34;;;;;;;2.40;1.80;;;;;;;8.49;66.56;97206.64;104310;1284;216991;-22
2022/01/03 12:26:19;;;;;;;5.50;2.50;;;;;;;8.40;66.65;97222.96;104438;1281;61192;-23